Coon Rapids, IA (50058)

6:52 PM CDT on May 27, 2015 (GMT -0500)
Neu | | Change Station
CLOSE
Current Station
Airport
Location: Carroll,
Elevation: 1204 ft
Nearby Weather Stations

Elev 1204 ft 42.04 °N, 94.79 °W | Updated 17 minutes ago

Clear
Clear
82 °F
Feels Like 82 °F
N
4
Wind Variable Wind from WSW

Today
High -- | Low -- °F
--% Chance of Precip.
Yesterday
High -- | Low -- °F
Precip. -- in
5:48 AM 8:43 PM
Waxing Gibbous, 71% visible
Pressure 30.03 in
Visibility 10.0 miles
Clouds Clear
Dew Point 48 °F
Humidity 30%
Rainfall 0.00 in
Snow Depth Not available.
UV 2 out of 12
Pollen 8.70 out of 12
Air Quality Not available.
Flu Activity Sporadic
METAR KCIN 272335Z AUTO 25003KT 10SM CLR 28/09 A3003 RMK AO2

More Conditions Fewer Conditions

Pressure 30.03 in
Visibility 10.0 miles
Clouds Clear
Dew Point 48 °F
Humidity 30%
Rainfall 0.00 in
Snow Depth Not available.
UV 2 out of 12
Pollen 8.70 out of 12
Air Quality Not available.
Flu Activity Sporadic
METAR KCIN 272335Z AUTO 25003KT 10SM CLR 28/09 A3003 RMK AO2

More Conditions Fewer Conditions

10-Day Weather Forecast

Almanac

Astronomy

May. 27, 2015 Rise Set
Actual Time
Civil Twilight
Nautical Twilight
Astronomical Twilight
Moon
Length of Visible Light
Length of Day
Tomorrow will be .
, % of the Moon is Illuminated

Today's Extremes

State Highs State Lows

Community

WunderPhotos

Upload Photos

1,824,825 photos uploaded!

WunderBlogs® & News

Nearby

Air Quality

  Air Quality AQ Index Pollutant
Not available.

Snow Depth

Station Depth Elevation

Earthquake Activity

City Distance Mag. Time & Date
Minimum magnitude displayed is 2.5.

Coastal Water Temperatures

Place Temperature

Stations

Nearby Weather Stations

Station Location Temp. Windchill Dew Point Humidity Wind Precip. Elev Updated Type